• Join FlightAware (Why Join?)
  • Login
  • US Flag 
08:14PM EDT


 

Airport Tracker/Info


-or-


 

Live Flight TrackerFlight Track Log ✈ KAP131 ✈ 27-Jun-2013 ✈ KMVY - KHYA

Flight Track Log - Related Links

Times and Time Zones

All times are in EDT time to prevent confusion due to time zone crossing. See the KAP131 flight status page for this flight to view local times or setup timezone preferences in your user account.

Time Position Orientation Groundspeed Altitude Reporting Facility
EDT Latitude Longitude Course Direction KTS MPH feet Rate Location/Type
09:50PM 41.5150 -70.4492 41° Northeast  Level FlightAware Approximate
09:51PM 41.5368 -70.4238 41° Northeast  Level FlightAware Approximate
09:52PM 41.5585 -70.3984 41° Northeast  Level FlightAware Approximate
09:53PM 41.5803 -70.3730 41° Northeast  Level FlightAware Approximate
09:54PM 41.6020 -70.3475 43° Northeast  Level FlightAware Approximate
09:55PM 41.6232 -70.3211 43° Northeast  Level FlightAware Approximate
09:56PM 41.6443 -70.2947 43° Northeast  Level FlightAware Approximate
09:57PM 41.6654 -70.2682 43° Northeast  Level FlightAware Approximate
09:58PM 41.6667 -70.2667 43° Northeast  Level FlightAware Approximate
09:59PM 41.6693 -70.2804 43° Northeast  Level Estimated
10:00PM 41.6693 -70.2804 43° Northeast  Level Estimated
10:01PM 41.6693 -70.2804 43° Northeast  Level Estimated
10:02PM 41.6693 -70.2804 43° Northeast  Level Estimated
10:03PM 41.6693 -70.2804 43° Northeast  Level Estimated
10:04PM 41.6693 -70.2804 43° Northeast  Level Estimated
10:05PM 41.6693 -70.2804 43° Northeast  Level Estimated
10:06PM 41.6693 -70.2804 43° Northeast  Level Estimated
10:07PM 41.6693 -70.2804 43° Northeast  Level Estimated
10:08PM 41.6693 -70.2804 43° Northeast  Level Estimated
10:09PM 41.6693 -70.2804 43° Northeast  Level Estimated